LXGB/GIB METAR and TAF weather

Enter ICAO airport designator
Station Type Date Time Source
LXGB METAR 2019/06/27 10:21 UTC NOAA

LXGB 271021Z 20006KT 9999 BKN045 24/18 Q1017 NOSIG RMK BLU BLU


Station Type Date Time Source
LXGB Decoded METAR 2019/06/27 10:21 UTC NOAA

Gibraltar, Gibraltar (LXGB) 36-09N 005-21W 0M
Jun 27, 2019 - 06:21 AM EDT / 2019.06.27 1021 UTC
Wind: from the SSW (200 degrees) at 7 MPH (6 KT):0
Visibility: greater than 7 mile(s):0
Sky conditions: mostly cloudy
Temperature: 75 F (24 C)
Dew Point: 64 F (18 C)
Relative Humidity: 69%
Pressure (altimeter): 30.03 in. Hg (1017 hPa)
ob: LXGB 271021Z 20006KT 9999 BKN045 24/18 Q1017 NOSIG RMK BLU BLU
cycle: 10

Station Type Date Time Source
LXGB TAF 2019/05/20 18:18 UTC NOAA

TAF
AMD TAF
AMD LXGB 202014Z 2018/2222 CNL

Example: see airport list